QTR8357 KIAH-EBLG
Flight info
| Callsign | QTR8357 |
|---|---|
| Flight time | N/A |
| Altitude | 31000 |
| Route | LURIC8 HAWES DCT ELD DCT KM36M DCT KI48Q DCT KC60U DCT PSB J49 MAGIO/N0483F330 J49 ALB DCT TOPPS N607A SAXAN/M084F330 DCT 5230N05000W 54N040W 5430N03000W 5330N02000W DCT MALOT/N0481F330 DCT GISTI/N0476F350 DCT EVRIN DCT JETZI DCT AMFUL DCT CAWZE DCT SIRIC P2 DVR/N0447F230 L18 VABIK Q70 KOK |
| Aircraft | B77L/H-SDE1E2E3FGHIJ2J3J4J5M1RWXY/LB1D1 |
Departure
| Time | 2026-05-05 08:43 |
|---|---|
| Airport | George Bush Intercontinental Airport (KIAH) |
Arrival
| Time | N/A |
|---|---|
| Airport | Liège Airport (EBLG) |
| Time | Latitude | Longitude | Altitude | Speed | Heading |
|---|---|---|---|---|---|
| 2026-05-05 07:58 | 29.99451 | -95.31028 | 111 ft | 0 kts | 360° |
| 2026-05-05 08:23 | 29.99438 | -95.31028 | 111 ft | 4 kts | 360° |
| 2026-05-05 08:23 | 29.99411 | -95.31028 | 111 ft | 4 kts | 356° |
| 2026-05-05 08:23 | 29.99387 | -95.31023 | 111 ft | 4 kts | 328° |
| 2026-05-05 08:23 | 29.99372 | -95.31007 | 111 ft | 4 kts | 287° |
| 2026-05-05 08:24 | 29.99370 | -95.30985 | 111 ft | 4 kts | 270° |
| 2026-05-05 08:24 | 29.99370 | -95.30957 | 111 ft | 1 kts | 270° |
| 2026-05-05 08:28 | 29.99370 | -95.30967 | 111 ft | 5 kts | 270° |
| 2026-05-05 08:29 | 29.99370 | -95.31009 | 111 ft | 5 kts | 270° |
| 2026-05-05 08:29 | 29.99370 | -95.31052 | 111 ft | 5 kts | 270° |
| 2026-05-05 08:29 | 29.99370 | -95.31104 | 111 ft | 7 kts | 270° |
| 2026-05-05 08:30 | 29.99366 | -95.31251 | 110 ft | 12 kts | 256° |
| 2026-05-05 08:30 | 29.99294 | -95.31293 | 110 ft | 13 kts | 181° |
| 2026-05-05 08:30 | 29.99206 | -95.31293 | 109 ft | 13 kts | 180° |
| 2026-05-05 08:30 | 29.99120 | -95.31294 | 109 ft | 13 kts | 184° |
| 2026-05-05 08:31 | 29.99080 | -95.31376 | 111 ft | 13 kts | 267° |
| 2026-05-05 08:31 | 29.99081 | -95.31478 | 109 ft | 13 kts | 270° |
| 2026-05-05 08:31 | 29.99082 | -95.31583 | 109 ft | 14 kts | 270° |
| 2026-05-05 08:31 | 29.99081 | -95.31698 | 109 ft | 14 kts | 269° |
| 2026-05-05 08:32 | 29.99080 | -95.31812 | 111 ft | 14 kts | 270° |
| 2026-05-05 08:32 | 29.99080 | -95.31927 | 111 ft | 14 kts | 270° |
| 2026-05-05 08:32 | 29.99080 | -95.32042 | 111 ft | 14 kts | 270° |
| 2026-05-05 08:32 | 29.99080 | -95.32160 | 111 ft | 15 kts | 270° |
| 2026-05-05 08:33 | 29.99080 | -95.32283 | 111 ft | 15 kts | 270° |
| 2026-05-05 08:33 | 29.99081 | -95.32404 | 110 ft | 15 kts | 270° |
| 2026-05-05 08:33 | 29.99086 | -95.32526 | 110 ft | 15 kts | 276° |
| 2026-05-05 08:33 | 29.99090 | -95.32648 | 109 ft | 15 kts | 270° |
| 2026-05-05 08:34 | 29.99090 | -95.32771 | 110 ft | 15 kts | 270° |
| 2026-05-05 08:34 | 29.99090 | -95.32893 | 108 ft | 15 kts | 270° |
| 2026-05-05 08:34 | 29.99091 | -95.33014 | 109 ft | 15 kts | 271° |
| 2026-05-05 08:34 | 29.99091 | -95.33137 | 108 ft | 15 kts | 270° |
| 2026-05-05 08:35 | 29.99091 | -95.33259 | 108 ft | 15 kts | 270° |
| 2026-05-05 08:35 | 29.99090 | -95.33381 | 111 ft | 15 kts | 270° |
| 2026-05-05 08:35 | 29.99090 | -95.33503 | 108 ft | 15 kts | 270° |
| 2026-05-05 08:35 | 29.99090 | -95.33625 | 108 ft | 15 kts | 270° |
| 2026-05-05 08:36 | 29.99090 | -95.33747 | 108 ft | 15 kts | 270° |
| 2026-05-05 08:36 | 29.99089 | -95.33869 | 111 ft | 15 kts | 270° |
| 2026-05-05 08:36 | 29.99089 | -95.33989 | 111 ft | 13 kts | 269° |
| 2026-05-05 08:36 | 29.99087 | -95.34091 | 111 ft | 13 kts | 269° |
| 2026-05-05 08:37 | 29.99086 | -95.34202 | 111 ft | 15 kts | 269° |
| 2026-05-05 08:37 | 29.99085 | -95.34333 | 111 ft | 17 kts | 270° |
| 2026-05-05 08:37 | 29.99085 | -95.34466 | 111 ft | 17 kts | 270° |
| 2026-05-05 08:37 | 29.99085 | -95.34599 | 111 ft | 17 kts | 270° |
| 2026-05-05 08:38 | 29.99085 | -95.34732 | 111 ft | 17 kts | 270° |
| 2026-05-05 08:38 | 29.99085 | -95.34842 | 110 ft | 10 kts | 270° |
| 2026-05-05 08:38 | 29.99087 | -95.34929 | 110 ft | 13 kts | 272° |
| 2026-05-05 08:38 | 29.99091 | -95.35063 | 108 ft | 20 kts | 270° |
| 2026-05-05 08:39 | 29.99091 | -95.35236 | 108 ft | 22 kts | 270° |
| 2026-05-05 08:39 | 29.99091 | -95.35391 | 109 ft | 19 kts | 270° |
| 2026-05-05 08:39 | 29.99049 | -95.35482 | 111 ft | 10 kts | 191° |
| 2026-05-05 08:39 | 29.98959 | -95.35485 | 109 ft | 16 kts | 184° |
| 2026-05-05 08:40 | 29.98879 | -95.35566 | 111 ft | 16 kts | 239° |
| 2026-05-05 08:40 | 29.98833 | -95.35660 | 111 ft | 2 kts | 241° |
| 2026-05-05 08:40 | 29.98830 | -95.35667 | 111 ft | 0 kts | 241° |
| 2026-05-05 08:42 | 29.98814 | -95.35702 | 111 ft | 10 kts | 242° |
| 2026-05-05 08:42 | 29.98767 | -95.35761 | 110 ft | 10 kts | 197° |
| 2026-05-05 08:42 | 29.98685 | -95.35724 | 109 ft | 22 kts | 153° |
| 2026-05-05 08:42 | 29.98333 | -95.35509 | 107 ft | 98 kts | 152° |
| 2026-05-05 08:43 | 29.97511 | -95.35007 | 108 ft | 171 kts | 152° |
| 2026-05-05 08:43 | 29.96326 | -95.34288 | 410 ft | 198 kts | 153° |
| 2026-05-05 08:43 | 29.95101 | -95.33549 | 1126 ft | 199 kts | 152° |
| 2026-05-05 08:43 | 29.93869 | -95.32797 | 1839 ft | 203 kts | 153° |
| 2026-05-05 08:44 | 29.92534 | -95.32008 | 2094 ft | 227 kts | 154° |
| 2026-05-05 08:44 | 29.91064 | -95.31182 | 2494 ft | 240 kts | 156° |
| 2026-05-05 08:44 | 29.89548 | -95.30389 | 3156 ft | 243 kts | 157° |
| 2026-05-05 08:44 | 29.88149 | -95.29256 | 3749 ft | 254 kts | 132° |
| 2026-05-05 08:45 | 29.87349 | -95.27379 | 4351 ft | 272 kts | 104° |
| 2026-05-05 08:45 | 29.87393 | -95.25157 | 4978 ft | 286 kts | 76° |
| 2026-05-05 08:45 | 29.88312 | -95.23097 | 5617 ft | 295 kts | 49° |
| 2026-05-05 08:45 | 29.89948 | -95.21665 | 6234 ft | 299 kts | 20° |
| 2026-05-05 08:46 | 29.91964 | -95.21265 | 6869 ft | 295 kts | 350° |
| 2026-05-05 08:46 | 29.93951 | -95.21745 | 7474 ft | 293 kts | 342° |
| 2026-05-05 08:46 | 29.95935 | -95.22332 | 8102 ft | 296 kts | 341° |
| 2026-05-05 08:46 | 29.97934 | -95.22937 | 8783 ft | 297 kts | 341° |
| 2026-05-05 08:47 | 29.99940 | -95.23544 | 9438 ft | 299 kts | 342° |
| 2026-05-05 08:47 | 30.01956 | -95.24144 | 10092 ft | 300 kts | 342° |
| 2026-05-05 08:47 | 30.04010 | -95.24748 | 10489 ft | 313 kts | 342° |
| 2026-05-05 08:47 | 30.06193 | -95.25382 | 10650 ft | 331 kts | 345° |
| 2026-05-05 08:48 | 30.08566 | -95.25504 | 10768 ft | 357 kts | 7° |
| 2026-05-05 08:48 | 30.10960 | -95.24462 | 10924 ft | 381 kts | 29° |
| 2026-05-05 08:48 | 30.13167 | -95.22670 | 11204 ft | 394 kts | 33° |
| 2026-05-05 08:48 | 30.15398 | -95.20775 | 11766 ft | 401 kts | 33° |
| 2026-05-05 08:49 | 30.16893 | -95.19519 | 12231 ft | 402 kts | 32° |
| 2026-05-05 08:49 | 30.19166 | -95.17646 | 13003 ft | 401 kts | 31° |
| 2026-05-05 08:49 | 30.21465 | -95.15791 | 13699 ft | 403 kts | 31° |
| 2026-05-05 08:49 | 30.24543 | -95.13331 | 14451 ft | 409 kts | 30° |
| 2026-05-05 08:50 | 30.26896 | -95.11447 | 15035 ft | 413 kts | 30° |
| 2026-05-05 08:50 | 30.28469 | -95.10186 | 15445 ft | 415 kts | 30° |
| 2026-05-05 08:50 | 30.30881 | -95.08252 | 16048 ft | 418 kts | 30° |
| 2026-05-05 08:50 | 30.33252 | -95.06350 | 16594 ft | 422 kts | 29° |
| 2026-05-05 08:51 | 30.35676 | -95.04405 | 17130 ft | 425 kts | 29° |
| 2026-05-05 08:51 | 30.38120 | -95.02444 | 17666 ft | 429 kts | 29° |
| 2026-05-05 08:51 | 30.40586 | -95.00465 | 18210 ft | 432 kts | 28° |
| 2026-05-05 08:51 | 30.43089 | -94.98514 | 18721 ft | 435 kts | 27° |
| 2026-05-05 08:52 | 30.45627 | -94.96584 | 19221 ft | 438 kts | 27° |
| 2026-05-05 08:52 | 30.48189 | -94.94645 | 19663 ft | 442 kts | 27° |
| 2026-05-05 08:52 | 30.50779 | -94.92674 | 20093 ft | 447 kts | 27° |
| 2026-05-05 08:52 | 30.53387 | -94.90679 | 20574 ft | 450 kts | 27° |
| 2026-05-05 08:53 | 30.56014 | -94.88663 | 21031 ft | 453 kts | 26° |
| 2026-05-05 08:53 | 30.58647 | -94.86640 | 21472 ft | 456 kts | 26° |
| 2026-05-05 08:53 | 30.61311 | -94.84599 | 21887 ft | 460 kts | 26° |
| 2026-05-05 08:53 | 30.63987 | -94.82546 | 22305 ft | 463 kts | 26° |
| 2026-05-05 08:54 | 30.66679 | -94.80475 | 22733 ft | 465 kts | 26° |
| 2026-05-05 08:54 | 30.69386 | -94.78390 | 23139 ft | 468 kts | 26° |
| 2026-05-05 08:54 | 30.72109 | -94.76294 | 23511 ft | 471 kts | 26° |
| 2026-05-05 08:54 | 30.74853 | -94.74179 | 23885 ft | 474 kts | 26° |
| 2026-05-05 08:55 | 30.77588 | -94.72072 | 24248 ft | 477 kts | 26° |
| 2026-05-05 08:55 | 30.80364 | -94.69926 | 24615 ft | 480 kts | 26° |
| 2026-05-05 08:55 | 30.83154 | -94.67769 | 24997 ft | 481 kts | 26° |
| 2026-05-05 08:55 | 30.85948 | -94.65608 | 25363 ft | 484 kts | 26° |
| 2026-05-05 08:56 | 30.88761 | -94.63433 | 25741 ft | 486 kts | 25° |
| 2026-05-05 08:56 | 30.91579 | -94.61251 | 26098 ft | 488 kts | 25° |
| 2026-05-05 08:56 | 30.94412 | -94.59057 | 26417 ft | 490 kts | 25° |
| 2026-05-05 08:56 | 30.97260 | -94.56849 | 26736 ft | 493 kts | 25° |
| 2026-05-05 08:57 | 31.00130 | -94.54622 | 27064 ft | 495 kts | 25° |
| 2026-05-05 08:57 | 31.03006 | -94.52388 | 27420 ft | 497 kts | 25° |
| 2026-05-05 08:57 | 31.05883 | -94.50156 | 27752 ft | 499 kts | 25° |
| 2026-05-05 08:57 | 31.08783 | -94.47910 | 28073 ft | 500 kts | 25° |
| 2026-05-05 08:58 | 31.11683 | -94.45660 | 28366 ft | 502 kts | 25° |
| 2026-05-05 08:58 | 31.14567 | -94.43417 | 28636 ft | 504 kts | 25° |
| 2026-05-05 08:58 | 31.17491 | -94.41141 | 28884 ft | 507 kts | 25° |
| 2026-05-05 08:58 | 31.20429 | -94.38857 | 29131 ft | 509 kts | 25° |
| 2026-05-05 08:59 | 31.23382 | -94.36552 | 29386 ft | 511 kts | 25° |
| 2026-05-05 08:59 | 31.26335 | -94.34244 | 29672 ft | 511 kts | 25° |
| 2026-05-05 08:59 | 31.29295 | -94.31930 | 29988 ft | 511 kts | 25° |
| 2026-05-05 08:59 | 31.32244 | -94.29624 | 30346 ft | 510 kts | 25° |
| 2026-05-05 09:00 | 31.35188 | -94.27319 | 30716 ft | 508 kts | 24° |
| 2026-05-05 09:00 | 31.38129 | -94.25019 | 30855 ft | 510 kts | 24° |
| 2026-05-05 09:00 | 31.41081 | -94.22710 | 30878 ft | 510 kts | 24° |
| 2026-05-05 09:01 | 31.46986 | -94.18086 | 30890 ft | 510 kts | 24° |
| 2026-05-05 09:01 | 31.52879 | -94.13452 | 30898 ft | 510 kts | 24° |
| 2026-05-05 09:02 | 31.58769 | -94.08819 | 30897 ft | 510 kts | 24° |
| 2026-05-05 09:02 | 31.64620 | -94.04205 | 30875 ft | 510 kts | 24° |
| 2026-05-05 09:03 | 31.70516 | -93.99552 | 30900 ft | 509 kts | 24° |
| 2026-05-05 09:03 | 31.76414 | -93.94894 | 30882 ft | 509 kts | 24° |
| 2026-05-05 09:04 | 31.82161 | -93.89987 | 30903 ft | 515 kts | 28° |
| 2026-05-05 09:04 | 31.87819 | -93.84781 | 30903 ft | 516 kts | 28° |
| 2026-05-05 09:05 | 31.93447 | -93.79570 | 30902 ft | 516 kts | 28° |
| 2026-05-05 09:05 | 31.99112 | -93.74358 | 30905 ft | 516 kts | 28° |
| 2026-05-05 09:06 | 32.04748 | -93.69190 | 30907 ft | 515 kts | 28° |
| 2026-05-05 09:06 | 32.10422 | -93.63979 | 30909 ft | 514 kts | 28° |
| 2026-05-05 09:07 | 32.16038 | -93.58812 | 30903 ft | 514 kts | 28° |
| 2026-05-05 09:07 | 32.21655 | -93.53636 | 30901 ft | 514 kts | 28° |
| 2026-05-05 09:08 | 32.27301 | -93.48418 | 30889 ft | 513 kts | 28° |
| 2026-05-05 09:08 | 32.32894 | -93.43245 | 30885 ft | 512 kts | 28° |
| 2026-05-05 09:09 | 32.38519 | -93.38034 | 30891 ft | 512 kts | 28° |
| 2026-05-05 09:09 | 32.44093 | -93.32862 | 30874 ft | 510 kts | 28° |
| 2026-05-05 09:10 | 32.49688 | -93.27670 | 30875 ft | 511 kts | 28° |
| 2026-05-05 09:10 | 32.55277 | -93.22466 | 30878 ft | 509 kts | 28° |
| 2026-05-05 09:11 | 32.60803 | -93.17307 | 30870 ft | 509 kts | 27° |
| 2026-05-05 09:11 | 32.66378 | -93.12102 | 30883 ft | 509 kts | 27° |
| 2026-05-05 09:12 | 32.71952 | -93.06889 | 30881 ft | 509 kts | 28° |
| 2026-05-05 09:12 | 32.77503 | -93.01683 | 30879 ft | 510 kts | 27° |
| 2026-05-05 09:13 | 32.83076 | -92.96454 | 30876 ft | 509 kts | 27° |
| 2026-05-05 09:13 | 32.88596 | -92.91265 | 30870 ft | 509 kts | 28° |
| 2026-05-05 09:14 | 32.94237 | -92.86247 | 30877 ft | 496 kts | 20° |
| 2026-05-05 09:14 | 33.00291 | -92.82750 | 30868 ft | 477 kts | 9° |
| 2026-05-05 09:15 | 33.06588 | -92.80604 | 30874 ft | 469 kts | 4° |
| 2026-05-05 09:15 | 33.12964 | -92.78582 | 30882 ft | 476 kts | 5° |
| 2026-05-05 09:16 | 33.19347 | -92.76474 | 30870 ft | 477 kts | 6° |
| 2026-05-05 09:16 | 33.22495 | -92.75145 | 30864 ft | 489 kts | 16° |
| 2026-05-05 09:16 | 33.25472 | -92.73027 | 30881 ft | 506 kts | 26° |
| 2026-05-05 09:16 | 33.28207 | -92.70280 | 30874 ft | 521 kts | 36° |
| 2026-05-05 09:17 | 33.30535 | -92.66934 | 30877 ft | 532 kts | 44° |
| 2026-05-05 09:17 | 33.34880 | -92.59700 | 30880 ft | 537 kts | 45° |
| 2026-05-05 09:18 | 33.39196 | -92.52389 | 30873 ft | 536 kts | 45° |
| 2026-05-05 09:18 | 33.43540 | -92.45200 | 30875 ft | 534 kts | 44° |
| 2026-05-05 09:19 | 33.47940 | -92.38009 | 30874 ft | 533 kts | 44° |
| 2026-05-05 09:19 | 33.52330 | -92.30836 | 30882 ft | 533 kts | 44° |
| 2026-05-05 09:20 | 33.56683 | -92.23707 | 30883 ft | 533 kts | 44° |
| 2026-05-05 09:20 | 33.61070 | -92.16501 | 30884 ft | 533 kts | 44° |
| 2026-05-05 09:21 | 33.65423 | -92.09326 | 30875 ft | 534 kts | 44° |
| 2026-05-05 09:21 | 33.69800 | -92.02108 | 30872 ft | 533 kts | 44° |
| 2026-05-05 09:22 | 33.74134 | -91.94925 | 30874 ft | 534 kts | 44° |
| 2026-05-05 09:22 | 33.78501 | -91.87692 | 30867 ft | 534 kts | 44° |
| 2026-05-05 09:23 | 33.82840 | -91.80495 | 30869 ft | 533 kts | 44° |
| 2026-05-05 09:23 | 33.87196 | -91.73244 | 30866 ft | 534 kts | 44° |
| 2026-05-05 09:24 | 33.91555 | -91.65984 | 30865 ft | 534 kts | 44° |
| 2026-05-05 09:24 | 33.95874 | -91.58770 | 30867 ft | 532 kts | 44° |
| 2026-05-05 09:25 | 34.00202 | -91.51513 | 30872 ft | 531 kts | 44° |
| 2026-05-05 09:25 | 34.04509 | -91.44296 | 30875 ft | 534 kts | 44° |
| 2026-05-05 09:26 | 34.08864 | -91.37001 | 30888 ft | 535 kts | 45° |
| 2026-05-05 09:26 | 34.13196 | -91.29689 | 30872 ft | 532 kts | 45° |
| 2026-05-05 09:27 | 34.17489 | -91.22444 | 30874 ft | 534 kts | 45° |
| 2026-05-05 09:27 | 34.21823 | -91.15115 | 30882 ft | 535 kts | 45° |
| 2026-05-05 09:28 | 34.26154 | -91.07783 | 30877 ft | 535 kts | 45° |
| 2026-05-05 09:28 | 34.30451 | -91.00487 | 30884 ft | 534 kts | 45° |
| 2026-05-05 09:29 | 34.34746 | -90.93178 | 30883 ft | 535 kts | 45° |
| 2026-05-05 09:29 | 34.39064 | -90.85818 | 30903 ft | 534 kts | 45° |
| 2026-05-05 09:30 | 34.43370 | -90.78471 | 30895 ft | 534 kts | 45° |
| 2026-05-05 09:30 | 34.47641 | -90.71166 | 30895 ft | 534 kts | 45° |
| 2026-05-05 09:31 | 34.51956 | -90.63768 | 30893 ft | 535 kts | 45° |
| 2026-05-05 09:31 | 34.56234 | -90.56415 | 30887 ft | 534 kts | 45° |
| 2026-05-05 09:32 | 34.60524 | -90.49022 | 30877 ft | 535 kts | 45° |
| 2026-05-05 09:32 | 34.64780 | -90.41668 | 30882 ft | 535 kts | 45° |
| 2026-05-05 09:33 | 34.69076 | -90.34256 | 30870 ft | 535 kts | 45° |
| 2026-05-05 09:33 | 34.73346 | -90.26851 | 30874 ft | 535 kts | 45° |
| 2026-05-05 09:34 | 34.77599 | -90.19465 | 30874 ft | 534 kts | 45° |
| 2026-05-05 09:34 | 34.81875 | -90.12036 | 30870 ft | 535 kts | 45° |
| 2026-05-05 09:35 | 34.86118 | -90.04645 | 30875 ft | 536 kts | 46° |
| 2026-05-05 09:35 | 34.92511 | -89.93460 | 30870 ft | 534 kts | 46° |
| 2026-05-05 09:36 | 34.96729 | -89.86049 | 30874 ft | 534 kts | 46° |
| 2026-05-05 09:36 | 35.00263 | -89.79844 | 30877 ft | 535 kts | 46° |
| 2026-05-05 09:37 | 35.05208 | -89.71149 | 30871 ft | 535 kts | 46° |
| 2026-05-05 09:37 | 35.08737 | -89.64933 | 30874 ft | 536 kts | 47° |
| 2026-05-05 09:38 | 35.12980 | -89.57427 | 30876 ft | 536 kts | 47° |
| 2026-05-05 09:38 | 35.17224 | -89.49922 | 30870 ft | 536 kts | 47° |
| 2026-05-05 09:39 | 35.21438 | -89.42436 | 30873 ft | 536 kts | 47° |
| 2026-05-05 09:39 | 35.25673 | -89.34900 | 30876 ft | 536 kts | 47° |
| 2026-05-05 09:40 | 35.29875 | -89.27421 | 30869 ft | 535 kts | 47° |
| 2026-05-05 09:40 | 35.34096 | -89.19884 | 30873 ft | 534 kts | 47° |
| 2026-05-05 09:41 | 35.38274 | -89.12405 | 30873 ft | 535 kts | 48° |
| 2026-05-05 09:41 | 35.42482 | -89.04854 | 30886 ft | 534 kts | 48° |
| 2026-05-05 09:42 | 35.46648 | -88.97366 | 30881 ft | 533 kts | 48° |
| 2026-05-05 09:42 | 35.50836 | -88.89823 | 30898 ft | 532 kts | 48° |
| 2026-05-05 09:43 | 35.55000 | -88.82302 | 30903 ft | 532 kts | 49° |
| 2026-05-05 09:43 | 35.59130 | -88.74842 | 30900 ft | 530 kts | 49° |
| 2026-05-05 09:44 | 35.63271 | -88.67324 | 30903 ft | 530 kts | 49° |
| 2026-05-05 09:44 | 35.67398 | -88.59822 | 30898 ft | 529 kts | 49° |
| 2026-05-05 09:45 | 35.71523 | -88.52311 | 30909 ft | 528 kts | 50° |
| 2026-05-05 09:45 | 35.75608 | -88.44857 | 30906 ft | 527 kts | 50° |
| 2026-05-05 09:46 | 35.79700 | -88.37373 | 30907 ft | 525 kts | 50° |
| 2026-05-05 09:46 | 35.83769 | -88.29921 | 30916 ft | 526 kts | 50° |
| 2026-05-05 09:47 | 35.87827 | -88.22459 | 30918 ft | 525 kts | 50° |
| 2026-05-05 09:47 | 35.91901 | -88.14960 | 30912 ft | 524 kts | 51° |
| 2026-05-05 09:48 | 35.95939 | -88.07511 | 30906 ft | 524 kts | 51° |
| 2026-05-05 09:48 | 35.99992 | -88.00019 | 30908 ft | 524 kts | 51° |
| 2026-05-05 09:49 | 36.04012 | -87.92486 | 30909 ft | 524 kts | 51° |
| 2026-05-05 09:49 | 36.07975 | -87.84965 | 30914 ft | 525 kts | 51° |
| 2026-05-05 09:50 | 36.11951 | -87.77399 | 30917 ft | 524 kts | 52° |
| 2026-05-05 09:50 | 36.15943 | -87.69813 | 30918 ft | 525 kts | 52° |
| 2026-05-05 09:51 | 36.19903 | -87.62271 | 30916 ft | 524 kts | 52° |
| 2026-05-05 09:51 | 36.23878 | -87.54679 | 30916 ft | 524 kts | 52° |
| 2026-05-05 09:52 | 36.27817 | -87.47139 | 30918 ft | 523 kts | 52° |
| 2026-05-05 09:52 | 36.31779 | -87.39542 | 30916 ft | 523 kts | 52° |
| 2026-05-05 09:53 | 36.35699 | -87.32012 | 30915 ft | 522 kts | 52° |
| 2026-05-05 09:53 | 36.39635 | -87.24430 | 30920 ft | 522 kts | 52° |
| 2026-05-05 09:54 | 36.43577 | -87.16825 | 30912 ft | 521 kts | 53° |
| 2026-05-05 09:54 | 36.47468 | -87.09295 | 30907 ft | 520 kts | 53° |
| 2026-05-05 09:55 | 36.51384 | -87.01709 | 30907 ft | 519 kts | 53° |
| 2026-05-05 09:55 | 36.55286 | -86.94127 | 30911 ft | 520 kts | 53° |
| 2026-05-05 09:56 | 36.59177 | -86.86546 | 30908 ft | 520 kts | 53° |
| 2026-05-05 09:56 | 36.63049 | -86.78985 | 30906 ft | 520 kts | 53° |
| 2026-05-05 09:57 | 36.66934 | -86.71385 | 30914 ft | 519 kts | 53° |
| 2026-05-05 09:57 | 36.70792 | -86.63823 | 30919 ft | 518 kts | 53° |
| 2026-05-05 09:58 | 36.74656 | -86.56231 | 30922 ft | 518 kts | 53° |
| 2026-05-05 09:58 | 36.78502 | -86.48656 | 30931 ft | 518 kts | 53° |
| 2026-05-05 09:59 | 36.82368 | -86.41028 | 30923 ft | 518 kts | 54° |
| 2026-05-05 09:59 | 36.86196 | -86.33448 | 30916 ft | 518 kts | 54° |
| 2026-05-05 10:00 | 36.90043 | -86.25817 | 30915 ft | 518 kts | 54° |
| 2026-05-05 10:00 | 36.93885 | -86.18181 | 30924 ft | 519 kts | 54° |
| 2026-05-05 10:01 | 36.97704 | -86.10575 | 30930 ft | 519 kts | 54° |
| 2026-05-05 10:01 | 37.01548 | -86.02910 | 30937 ft | 519 kts | 54° |
| 2026-05-05 10:02 | 37.05359 | -85.95283 | 30937 ft | 518 kts | 54° |
| 2026-05-05 10:02 | 37.09182 | -85.87606 | 30937 ft | 518 kts | 54° |
| 2026-05-05 10:03 | 37.12999 | -85.79932 | 30934 ft | 518 kts | 54° |
| 2026-05-05 10:03 | 37.16786 | -85.72299 | 30940 ft | 517 kts | 54° |
| 2026-05-05 10:04 | 37.20594 | -85.64607 | 30936 ft | 518 kts | 54° |
| 2026-05-05 10:04 | 37.24392 | -85.56921 | 30948 ft | 518 kts | 54° |
| 2026-05-05 10:05 | 37.28164 | -85.49269 | 30954 ft | 518 kts | 54° |
| 2026-05-05 10:05 | 37.31961 | -85.41544 | 30959 ft | 518 kts | 54° |
| 2026-05-05 10:06 | 37.35731 | -85.33863 | 30965 ft | 518 kts | 54° |
| 2026-05-05 10:06 | 37.39512 | -85.26139 | 30973 ft | 518 kts | 54° |
| 2026-05-05 10:07 | 37.43267 | -85.18448 | 30969 ft | 517 kts | 54° |
| 2026-05-05 10:07 | 37.47026 | -85.10725 | 30960 ft | 517 kts | 54° |